This is the latest recevied weather packets stored in our database for station/object KJ4EWA. If no packets are shown the sender has not sent any weather packets the latest 1 day(s).
| Time | Temp. | Humidity | Pressure | Rain* | Wind** | Luminosity | Snow |
|---|---|---|---|---|---|---|---|
| 1778020332 | 23.89° C | 83% | 1017.2 hPa | 0 mm | 2.24 m/s, 135° | 59 W/m² | - |
| 1778020028 | 24.44° C | 83% | 1017 hPa | 0 mm | 1.34 m/s, 144° | 223 W/m² | - |
| 1778019724 | 23.89° C | 83% | 1016.5 hPa | 0 mm | 2.24 m/s, 153° | 103 W/m² | - |
| 1778019422 | 24.44° C | 82% | 1016.3 hPa | 0 mm | 0.89 m/s, 117° | 231 W/m² | - |
| 1778019118 | 23.89° C | 83% | 1016.5 hPa | 0 mm | 1.79 m/s, 144° | 97 W/m² | - |
| 1778018815 | 23.89° C | 84% | 1016.3 hPa | 0 mm | 1.79 m/s, 128° | 104 W/m² | - |
| 1778018513 | 23.89° C | 84% | 1016.6 hPa | 0 mm | 2.68 m/s, 113° | 78 W/m² | - |
| 1778018210 | 24.44° C | 82% | 1016.5 hPa | 0 mm | 0.45 m/s, 154° | 150 W/m² | - |
| 1778017908 | 24.44° C | 82% | 1016.5 hPa | 0 mm | 2.24 m/s, 161° | 351 W/m² | - |
| 1778017606 | 25° C | 81% | 1017 hPa | 0 mm | 1.79 m/s, 186° | 412 W/m² | - |
| 1778017303 | 25° C | 81% | 1016.8 hPa | 0 mm | 0.45 m/s, 151° | 258 W/m² | - |
| 1778017000 | 25° C | 82% | 1016.9 hPa | 0 mm | 0 m/s | 124 W/m² | - |
| 1778016697 | 24.44° C | 81% | 1017 hPa | 0 mm | 0 m/s | 133 W/m² | - |
| 1778016392 | 25.56° C | 80% | 1016.8 hPa | 0 mm | 1.34 m/s, 215° | 398 W/m² | - |
| 1778016091 | 24.44° C | 81% | 1016.9 hPa | 0 mm | 3.58 m/s, 131° | 459 W/m² | - |
| 1778015787 | 23.89° C | 82% | 1016.9 hPa | 0 mm | 1.34 m/s, 173° | 473 W/m² | - |
| 1778015485 | 25° C | 81% | 1016.8 hPa | 0 mm | 2.68 m/s, 156° | 192 W/m² | - |
| 1778015181 | 25.56° C | 79% | 1017 hPa | 0 mm | 1.34 m/s, 135° | 198 W/m² | - |
| 1778014878 | 25° C | 81% | 1017 hPa | 0 mm | 0.89 m/s, 108° | 439 W/m² | - |
| 1778014575 | 24.44° C | 81% | 1017 hPa | 0 mm | 1.34 m/s, 163° | 110 W/m² | - |
| 1778014273 | 24.44° C | 78% | 1016.9 hPa | 0 mm | 1.34 m/s, 145° | 179 W/m² | - |
| 1778013970 | 25° C | 78% | 1016.8 hPa | 0 mm | 1.79 m/s, 180° | 535 W/m² | - |
| 1778013668 | 25° C | 80% | 1017.1 hPa | 0 mm | 1.79 m/s, 186° | 391 W/m² | - |
| 1778013364 | 25° C | 79% | 1017.1 hPa | 0 mm | 2.68 m/s, 133° | 503 W/m² | - |
| 1778013061 | 25.56° C | 79% | 1017.1 hPa | 0 mm | 1.79 m/s, 137° | 557 W/m² | - |
* Rain latest hour (hover to see other rain measurements)
** Current wind speed in m/s (hover to see current wind gust speed)